createdAt,value
2023-02-09T00:01:31.944Z,19.25
2023-02-09T00:04:00.311Z,18.00
2023-02-09T00:06:30.190Z,19.10
2023-02-09T00:08:59.652Z,18.13
2023-02-09T00:11:48.856Z,20.92
2023-02-09T00:14:21.537Z,16.98
2023-02-09T00:16:50.270Z,16.70
2023-02-09T00:19:18.931Z,18.85
2023-02-09T00:21:46.728Z,20.80
2023-02-09T00:24:14.760Z,20.25
2023-02-09T00:26:42.514Z,17.63
2023-02-09T00:29:10.110Z,17.13
2023-02-09T00:31:37.731Z,19.75
2023-02-09T00:34:05.418Z,19.70
2023-02-09T00:36:33.304Z,23.45
2023-02-09T00:39:01.454Z,16.58
2023-02-09T00:41:46.702Z,20.35
2023-02-09T00:44:13.641Z,18.02
2023-02-09T00:46:40.580Z,19.25
2023-02-09T00:49:08.058Z,17.13
2023-02-09T00:51:35.275Z,16.42
2023-02-09T00:54:03.370Z,17.08
2023-02-09T00:56:30.471Z,21.98
2023-02-09T00:58:57.410Z,17.08
2023-02-09T01:01:25.204Z,19.25
2023-02-09T01:03:53.094Z,17.30
2023-02-09T01:06:20.869Z,17.98
2023-02-09T01:08:48.291Z,20.17
2023-02-09T01:11:16.642Z,23.05
2023-02-09T01:13:45.199Z,18.10
2023-02-09T01:16:17.239Z,20.20
2023-02-09T01:18:45.593Z,16.98
2023-02-09T01:21:21.747Z,18.70
2023-02-09T01:23:49.630Z,16.13
2023-02-09T01:26:18.075Z,15.40
2023-02-09T01:28:53.051Z,16.30
2023-02-09T01:31:30.635Z,16.63
2023-02-09T01:34:01.650Z,15.27
2023-02-09T01:36:31.025Z,17.45
2023-02-09T01:39:01.798Z,14.88
2023-02-09T01:41:29.501Z,18.67
2023-02-09T01:44:08.170Z,14.50
2023-02-09T01:46:36.854Z,15.25
2023-02-09T01:49:13.452Z,16.73
2023-02-09T01:51:53.571Z,15.23
2023-02-09T01:54:27.166Z,16.50
2023-02-09T01:57:05.245Z,18.60
2023-02-09T01:59:36.424Z,17.90
2023-02-09T02:02:06.910Z,19.50
2023-02-09T02:04:35.559Z,16.33
2023-02-09T02:07:28.725Z,19.00
2023-02-09T02:09:56.238Z,16.88
2023-02-09T02:12:24.647Z,16.77
2023-02-09T02:14:51.556Z,18.13
2023-02-09T02:17:54.000Z,18.50
2023-02-09T02:20:48.583Z,16.25
2023-02-09T02:23:38.365Z,17.80
2023-02-09T02:26:32.631Z,16.20
2023-02-09T02:29:08.648Z,18.95
2023-02-09T02:31:58.799Z,18.77
2023-02-09T02:34:40.366Z,15.25
2023-02-09T02:37:09.970Z,18.15
2023-02-09T02:40:03.699Z,15.98
2023-02-09T02:42:55.318Z,19.25
2023-02-09T02:45:45.830Z,16.60
2023-02-09T02:48:34.386Z,17.58
2023-02-09T02:51:14.309Z,19.48
2023-02-09T02:53:48.707Z,20.83
2023-02-09T02:56:30.435Z,19.07
2023-02-09T02:59:02.303Z,20.25
2023-02-09T03:01:39.333Z,20.88
2023-02-09T03:04:08.949Z,20.63
2023-02-09T03:06:37.759Z,19.27
2023-02-09T03:09:05.562Z,22.92
2023-02-09T03:11:43.572Z,18.88
2023-02-09T03:14:42.575Z,17.17
2023-02-09T03:17:24.648Z,18.58
2023-02-09T03:19:59.567Z,16.83
2023-02-09T03:22:41.621Z,24.02
2023-02-09T03:25:31.520Z,22.35
2023-02-09T03:28:07.344Z,20.38
2023-02-09T03:30:35.742Z,17.90
2023-02-09T03:33:05.225Z,19.83
2023-02-09T03:35:39.775Z,16.75
2023-02-09T03:38:07.213Z,22.35
2023-02-09T03:40:35.146Z,19.33
2023-02-09T03:43:02.050Z,21.02
2023-02-09T03:45:28.944Z,21.58
2023-02-09T03:47:55.849Z,22.83
2023-02-09T03:50:22.852Z,23.33
2023-02-09T03:52:50.687Z,21.42
2023-02-09T03:55:17.962Z,22.73
2023-02-09T03:57:44.858Z,20.00
2023-02-09T04:00:13.168Z,19.77
2023-02-09T04:02:42.350Z,18.73
2023-02-09T04:05:10.043Z,21.63
2023-02-09T04:07:37.871Z,22.65
2023-02-09T04:10:06.113Z,20.08
2023-02-09T04:12:33.013Z,23.02
2023-02-09T04:14:59.896Z,22.25
2023-02-09T04:17:26.912Z,22.48
2023-02-09T04:19:53.778Z,22.63
2023-02-09T04:22:20.666Z,24.00
2023-02-09T04:24:47.540Z,20.77
2023-02-09T04:27:14.364Z,24.15
2023-02-09T04:29:41.260Z,20.17
2023-02-09T04:32:08.151Z,22.90
2023-02-09T04:34:35.084Z,25.77
2023-02-09T04:37:01.950Z,23.25
2023-02-09T04:39:29.000Z,22.50
2023-02-09T04:41:55.894Z,26.83
2023-02-09T04:44:22.854Z,23.75
2023-02-09T04:46:49.783Z,26.75
2023-02-09T04:49:16.649Z,23.98
2023-02-09T04:51:43.556Z,23.45
2023-02-09T04:54:10.460Z,23.52
2023-02-09T04:56:38.815Z,25.73
2023-02-09T04:59:24.286Z,29.02
2023-02-09T05:01:52.081Z,25.83
2023-02-09T05:04:19.006Z,21.98
2023-02-09T05:06:45.936Z,24.77
2023-02-09T05:09:12.838Z,23.75
2023-02-09T05:11:39.734Z,22.75
2023-02-09T05:14:07.769Z,24.25
2023-02-09T05:16:34.638Z,27.73
2023-02-09T05:19:01.551Z,23.73
2023-02-09T05:21:28.412Z,24.70
2023-02-09T05:23:55.321Z,26.10
2023-02-09T05:26:22.212Z,27.88
2023-02-09T05:28:49.084Z,35.40
2023-02-09T05:31:16.663Z,33.33
2023-02-09T05:33:43.868Z,34.25
2023-02-09T05:36:12.737Z,38.22
2023-02-09T05:38:40.119Z,34.17
2023-02-09T05:41:10.235Z,39.60
2023-02-09T05:43:37.949Z,36.03
2023-02-09T05:46:08.080Z,37.20
2023-02-09T05:48:35.221Z,37.20
2023-02-09T05:51:02.093Z,32.90
2023-02-09T05:53:29.062Z,32.13
2023-02-09T05:55:56.027Z,34.67
2023-02-09T05:58:22.894Z,32.85
2023-02-09T06:00:49.758Z,37.80
2023-02-09T06:03:16.641Z,33.70
2023-02-09T06:05:46.269Z,41.03
2023-02-09T06:08:13.258Z,42.80
2023-02-09T06:10:40.246Z,40.50
2023-02-09T06:13:07.301Z,37.03
2023-02-09T06:15:34.361Z,44.53
2023-02-09T06:18:01.276Z,43.70
2023-02-09T06:20:28.256Z,41.42
2023-02-09T06:22:55.178Z,48.03
2023-02-09T06:25:22.050Z,46.97
2023-02-09T06:27:49.041Z,41.17
2023-02-09T06:30:16.248Z,43.45
2023-02-09T06:32:43.145Z,43.33
2023-02-09T06:35:10.048Z,50.20
2023-02-09T06:37:36.996Z,46.65
2023-02-09T06:40:04.381Z,45.20
2023-02-09T06:42:43.908Z,47.70
2023-02-09T06:45:17.202Z,53.90
2023-02-09T06:47:46.312Z,45.78
2023-02-09T06:50:17.571Z,48.83
2023-02-09T06:52:45.573Z,45.72
2023-02-09T06:55:13.463Z,44.88
2023-02-09T06:57:41.011Z,48.55
2023-02-09T07:00:09.982Z,42.72
2023-02-09T07:02:36.906Z,48.55
2023-02-09T07:05:04.534Z,50.70
2023-02-09T07:07:31.721Z,45.65
2023-02-09T07:09:58.640Z,49.45
2023-02-09T07:12:35.247Z,45.65
2023-02-09T07:15:02.217Z,50.20
2023-02-09T07:17:30.859Z,52.03
2023-02-09T07:19:58.395Z,51.75
2023-02-09T07:22:27.162Z,47.03
2023-02-09T07:24:54.139Z,48.88
2023-02-09T07:27:25.486Z,52.60
2023-02-09T07:29:52.814Z,50.90
2023-02-09T07:32:22.665Z,50.45
2023-02-09T07:34:49.844Z,54.28
2023-02-09T07:37:16.776Z,56.28
2023-02-09T07:39:43.822Z,55.40
2023-02-09T07:42:10.868Z,47.15
2023-02-09T07:44:49.264Z,46.00
2023-02-09T07:47:16.240Z,52.28
2023-02-09T07:49:43.197Z,54.75
2023-02-09T07:52:10.365Z,49.70
2023-02-09T07:54:37.287Z,50.92
2023-02-09T07:57:04.132Z,50.40
2023-02-09T07:59:31.075Z,45.33
2023-02-09T08:01:58.518Z,45.97
2023-02-09T08:04:26.540Z,50.95
2023-02-09T08:06:55.000Z,50.28
2023-02-09T08:09:21.860Z,52.72
2023-02-09T08:11:56.187Z,48.10
2023-02-09T08:14:35.469Z,48.43
2023-02-09T08:17:23.609Z,47.88
2023-02-09T08:20:08.676Z,51.20
2023-02-09T08:22:41.712Z,45.58
2023-02-09T08:25:09.383Z,50.95
2023-02-09T08:27:39.610Z,44.75
2023-02-09T08:30:07.274Z,47.15
2023-02-09T08:32:34.100Z,45.30
2023-02-09T08:35:01.201Z,44.33
2023-02-09T08:37:28.165Z,44.78
2023-02-09T08:39:55.084Z,42.65
2023-02-09T08:42:22.002Z,43.05
2023-02-09T08:44:49.163Z,42.05
2023-02-09T08:47:23.853Z,38.67
2023-02-09T08:49:51.101Z,41.67
2023-02-09T08:52:18.576Z,35.17
2023-02-09T08:54:45.528Z,43.55
2023-02-09T08:57:12.424Z,44.83
2023-02-09T08:59:39.271Z,45.00
2023-02-09T09:02:06.527Z,41.17
2023-02-09T09:04:33.382Z,46.22
2023-02-09T09:07:00.442Z,52.00
2023-02-09T09:09:28.551Z,51.05
2023-02-09T09:12:00.399Z,39.28
2023-02-09T09:14:27.618Z,41.55
2023-02-09T09:16:58.380Z,41.13
2023-02-09T09:19:28.549Z,38.13
2023-02-09T09:21:58.459Z,36.92
2023-02-09T09:24:41.351Z,35.28
2023-02-09T09:27:10.680Z,36.22
2023-02-09T09:29:40.219Z,40.22
2023-02-09T09:32:10.475Z,32.65
2023-02-09T09:34:37.699Z,36.75
2023-02-09T09:37:05.123Z,29.27
2023-02-09T09:39:32.383Z,32.92
2023-02-09T09:42:01.043Z,26.60
2023-02-09T09:44:36.562Z,29.70
2023-02-09T09:49:38.220Z,29.05
2023-02-09T09:52:20.903Z,30.70
2023-02-09T09:54:48.054Z,34.35
2023-02-09T09:57:27.339Z,34.33
2023-02-09T09:59:56.611Z,26.27
2023-02-09T10:02:33.158Z,26.25
2023-02-09T10:05:22.842Z,25.13
2023-02-09T10:08:01.594Z,21.35
2023-02-09T10:11:06.242Z,23.83
2023-02-09T10:13:49.110Z,23.85
2023-02-09T10:16:27.196Z,21.80
2023-02-09T10:19:05.276Z,23.30
2023-02-09T10:21:37.106Z,22.40
2023-02-09T10:24:23.162Z,22.10
2023-02-09T10:29:29.629Z,23.55
2023-02-09T10:32:11.317Z,18.52
2023-02-09T10:34:38.111Z,23.27
2023-02-09T10:37:19.950Z,20.85
2023-02-09T10:40:27.284Z,18.70
2023-02-09T10:42:59.884Z,19.30
2023-02-09T10:45:46.030Z,23.02
2023-02-09T10:48:13.037Z,21.02
2023-02-09T10:50:59.661Z,20.50
2023-02-09T10:53:35.010Z,19.70
2023-02-09T10:56:22.698Z,19.85
2023-02-09T10:59:16.535Z,22.75
2023-02-09T11:02:48.726Z,18.52
2023-02-09T11:05:21.578Z,19.13
2023-02-09T11:08:23.512Z,18.77
2023-02-09T11:11:13.259Z,17.88
2023-02-09T11:13:42.285Z,18.45
2023-02-09T11:16:44.681Z,20.52
2023-02-09T11:19:22.385Z,16.98
2023-02-09T11:21:59.054Z,14.95
2023-02-09T11:25:16.136Z,17.88
2023-02-09T11:28:08.329Z,17.88
2023-02-09T11:31:12.965Z,20.98
2023-02-09T11:33:52.805Z,18.27
2023-02-09T11:36:31.481Z,19.05
2023-02-09T11:39:04.065Z,15.98
2023-02-09T11:41:59.069Z,16.02
2023-02-09T11:44:44.337Z,16.55
2023-02-09T11:47:21.783Z,15.95
2023-02-09T11:49:56.503Z,16.17
2023-02-09T11:53:00.863Z,17.42
2023-02-09T11:55:45.407Z,18.70
2023-02-09T11:58:36.413Z,20.25
2023-02-09T12:01:35.355Z,19.23
2023-02-09T12:04:16.855Z,15.45
2023-02-09T12:06:51.850Z,16.23
2023-02-09T12:09:33.659Z,17.67
2023-02-09T12:12:37.485Z,18.73
2023-02-09T12:15:19.798Z,15.05
2023-02-09T12:17:58.812Z,16.17
2023-02-09T12:20:37.382Z,16.15
2023-02-09T12:23:19.681Z,17.63
2023-02-09T12:26:01.694Z,15.63
2023-02-09T12:28:31.455Z,14.32
2023-02-09T12:30:58.425Z,18.35
2023-02-09T12:33:26.369Z,18.25
2023-02-09T12:36:15.933Z,23.10
2023-02-09T12:38:56.590Z,19.10
2023-02-09T12:41:26.020Z,20.05
2023-02-09T12:44:56.913Z,19.48
2023-02-09T12:48:19.161Z,21.27
2023-02-09T12:50:50.350Z,20.63
2023-02-09T12:53:29.500Z,24.35
2023-02-09T12:56:11.221Z,21.23
2023-02-09T12:58:44.418Z,22.58
2023-02-09T13:01:16.565Z,24.23
2023-02-09T13:04:02.989Z,24.10
2023-02-09T13:07:13.254Z,24.77
2023-02-09T13:09:42.818Z,21.45
2023-02-09T13:12:28.266Z,23.40
2023-02-09T13:14:59.781Z,23.52
2023-02-09T13:17:44.010Z,25.20
2023-02-09T13:20:38.521Z,24.25
2023-02-09T13:23:55.981Z,23.45
2023-02-09T13:26:28.239Z,21.88
2023-02-09T13:29:20.471Z,23.35
2023-02-09T13:32:28.820Z,20.48
2023-02-09T13:35:23.724Z,24.05
2023-02-09T13:37:59.340Z,18.73
2023-02-09T13:40:30.636Z,21.50
2023-02-09T13:43:20.756Z,20.92
2023-02-09T13:45:54.806Z,19.23
2023-02-09T13:48:39.167Z,24.67
2023-02-09T13:51:19.100Z,21.80
2023-02-09T13:54:01.868Z,19.40
2023-02-09T13:56:42.848Z,19.92
2023-02-09T13:59:17.498Z,20.80
2023-02-09T14:01:48.233Z,20.00
2023-02-09T14:04:25.871Z,20.00
2023-02-09T14:07:09.619Z,18.70
2023-02-09T14:10:10.806Z,18.20
2023-02-09T14:12:59.868Z,19.02
2023-02-09T14:16:00.988Z,17.13
2023-02-09T14:18:51.474Z,19.40
2023-02-09T14:21:43.115Z,20.90
2023-02-09T14:24:22.063Z,22.35
2023-02-09T14:26:52.003Z,19.02
2023-02-09T14:29:32.766Z,20.35
2023-02-09T14:32:05.559Z,16.83
2023-02-09T14:34:38.602Z,21.77
2023-02-09T14:37:11.566Z,20.98
2023-02-09T14:40:04.646Z,19.40
2023-02-09T14:42:34.739Z,21.23
2023-02-09T14:45:15.249Z,20.42
2023-02-09T14:47:44.644Z,21.13
2023-02-09T14:50:18.391Z,20.67
2023-02-09T14:52:49.305Z,24.95
2023-02-09T14:55:25.038Z,21.92
2023-02-09T14:57:52.209Z,20.77
2023-02-09T15:00:28.239Z,19.92
2023-02-09T15:02:55.243Z,22.25
2023-02-09T15:05:24.126Z,20.65
2023-02-09T15:07:55.993Z,23.52
2023-02-09T15:10:38.858Z,23.75
2023-02-09T15:13:06.049Z,22.50
2023-02-09T15:15:37.484Z,24.02
2023-02-09T15:18:05.338Z,19.35
2023-02-09T15:20:33.123Z,23.48
2023-02-09T15:23:03.528Z,24.80
2023-02-09T15:25:30.817Z,28.10
2023-02-09T15:28:00.496Z,26.85
2023-02-09T15:30:35.362Z,25.02
2023-02-09T15:33:02.798Z,24.75
2023-02-09T15:35:30.141Z,28.58
2023-02-09T15:38:00.253Z,24.27
2023-02-09T15:40:52.032Z,24.30
2023-02-09T15:43:40.991Z,23.52
2023-02-09T15:46:29.614Z,22.58
2023-02-09T15:48:56.901Z,24.42
2023-02-09T15:51:27.073Z,26.27
2023-02-09T15:54:21.262Z,27.48
2023-02-09T15:56:48.336Z,24.95
2023-02-09T15:59:22.498Z,27.60
2023-02-09T16:01:50.724Z,27.45
2023-02-09T16:04:18.208Z,27.83
2023-02-09T16:06:54.442Z,25.05
2023-02-09T16:09:27.781Z,27.38
2023-02-09T16:11:55.426Z,24.60
2023-02-09T16:14:26.863Z,29.33
2023-02-09T16:16:53.948Z,28.65
2023-02-09T16:19:21.581Z,26.13
2023-02-09T16:21:56.781Z,22.13
2023-02-09T16:24:41.322Z,26.60
2023-02-09T16:27:23.956Z,26.05
2023-02-09T16:30:00.804Z,30.50
2023-02-09T16:32:30.390Z,31.05
2023-02-09T16:35:07.372Z,26.75
2023-02-09T16:37:44.771Z,23.77
2023-02-09T16:40:33.073Z,26.75
2023-02-09T16:46:03.753Z,26.30
2023-02-09T16:48:34.874Z,25.40
2023-02-09T16:51:03.674Z,28.27
2023-02-09T16:53:41.826Z,26.50
2023-02-09T16:56:15.774Z,26.83
2023-02-09T16:58:44.287Z,25.10
2023-02-09T17:01:19.320Z,28.80
2023-02-09T17:03:56.383Z,30.58
2023-02-09T17:06:28.218Z,27.20
2023-02-09T17:08:56.800Z,29.10
2023-02-09T17:11:27.689Z,33.40
2023-02-09T17:13:54.749Z,29.58
2023-02-09T17:16:51.074Z,31.00
2023-02-09T17:19:19.473Z,31.45
2023-02-09T17:21:46.385Z,32.10
2023-02-09T17:47:31.681Z,34.05
2023-02-09T17:49:58.758Z,36.15
2023-02-09T17:52:28.105Z,35.33
2023-02-09T17:55:02.364Z,32.42
2023-02-09T17:57:29.321Z,33.75
2023-02-09T17:59:56.320Z,35.78
2023-02-09T18:02:23.407Z,37.38
2023-02-09T18:04:50.373Z,44.85
2023-02-09T18:07:20.515Z,49.45
2023-02-09T18:09:47.690Z,51.35
2023-02-09T18:12:22.067Z,48.80
2023-02-09T18:14:49.434Z,48.07
2023-02-09T18:17:16.682Z,52.58
2023-02-09T18:19:43.933Z,46.83
2023-02-09T18:22:17.036Z,39.92
2023-02-09T18:24:44.558Z,42.40
2023-02-09T18:27:20.325Z,33.90
2023-02-09T18:29:47.820Z,33.22
2023-02-09T18:32:16.927Z,40.60
2023-02-09T18:34:46.789Z,37.63
2023-02-09T18:37:17.377Z,36.65
2023-02-09T18:39:46.979Z,31.73
2023-02-09T18:42:16.261Z,41.00
2023-02-09T18:44:43.340Z,31.17
2023-02-09T18:47:16.768Z,32.33
2023-02-09T18:49:43.684Z,32.55
2023-02-09T18:52:17.022Z,40.03
2023-02-09T18:54:44.195Z,33.50
2023-02-09T18:57:13.139Z,36.00
2023-02-09T18:59:40.784Z,34.78
2023-02-09T19:02:11.333Z,34.53
2023-02-09T19:04:38.501Z,34.70
2023-02-09T19:07:06.412Z,34.45
2023-02-09T19:09:33.652Z,32.30
2023-02-09T19:12:01.221Z,31.27
2023-02-09T19:14:41.938Z,39.72
2023-02-09T19:17:16.027Z,35.75
2023-02-09T19:19:44.598Z,33.92
2023-02-09T19:22:20.938Z,40.13
2023-02-09T19:24:52.424Z,37.78
2023-02-09T19:27:20.284Z,33.90
2023-02-09T19:29:47.267Z,34.20
2023-02-09T19:32:15.455Z,32.10
2023-02-09T19:34:45.289Z,34.53
2023-02-09T19:37:17.859Z,38.17
2023-02-09T19:40:04.293Z,33.58
2023-02-09T19:42:32.793Z,35.78
2023-02-09T19:44:59.821Z,31.73
2023-02-09T19:47:27.453Z,33.30
2023-02-09T19:49:58.549Z,37.50
2023-02-09T19:52:27.821Z,31.67
2023-02-09T19:54:56.617Z,34.90
2023-02-09T19:57:24.861Z,35.92
2023-02-09T19:59:53.483Z,30.95
2023-02-09T20:02:20.532Z,35.97
2023-02-09T20:04:47.528Z,39.65
2023-02-09T20:07:15.265Z,32.30
2023-02-09T20:09:42.480Z,38.72
2023-02-09T20:12:09.697Z,38.50
2023-02-09T20:14:36.828Z,32.53
2023-02-09T20:17:03.786Z,31.73
2023-02-09T20:19:31.568Z,31.50
2023-02-09T20:22:14.648Z,26.30
2023-02-09T20:24:45.921Z,34.38
2023-02-09T20:27:13.163Z,29.80
2023-02-09T20:29:40.186Z,33.20
2023-02-09T20:32:07.414Z,40.55
2023-02-09T20:34:34.326Z,36.35
2023-02-09T20:37:01.258Z,42.10
2023-02-09T20:39:28.200Z,39.42
2023-02-09T20:42:16.518Z,34.55
2023-02-09T20:45:02.682Z,39.55
2023-02-09T20:47:30.154Z,42.38
2023-02-09T20:49:59.952Z,35.08
2023-02-09T20:52:29.085Z,42.33
2023-02-09T20:54:56.579Z,44.70
2023-02-09T20:57:29.341Z,42.33
2023-02-09T21:36:53.888Z,34.17
2023-02-09T21:40:05.820Z,34.03
2023-02-09T21:42:51.523Z,34.97
2023-02-09T22:02:18.159Z,34.08
2023-02-09T22:04:46.807Z,29.98
2023-02-09T22:07:14.660Z,32.03
2023-02-09T22:12:53.058Z,33.15
2023-02-09T22:15:19.987Z,32.20
2023-02-09T22:17:48.520Z,29.77
2023-02-09T22:20:15.444Z,25.92
2023-02-09T22:22:45.221Z,24.33
2023-02-09T22:25:12.374Z,27.00
2023-02-09T22:27:39.251Z,27.58
2023-02-09T22:30:06.797Z,28.77
2023-02-09T22:32:33.666Z,28.95
2023-02-09T22:35:00.502Z,26.40
2023-02-09T22:37:27.410Z,25.67
2023-02-09T22:39:54.393Z,24.13
2023-02-09T22:42:21.579Z,27.42
2023-02-09T22:44:48.726Z,25.50
2023-02-09T22:47:15.578Z,27.92
2023-02-09T22:49:45.365Z,24.48
2023-02-09T22:52:12.616Z,22.58
2023-02-09T22:54:39.474Z,23.08
2023-02-09T22:57:06.363Z,25.30
2023-02-09T22:59:33.300Z,26.45
2023-02-09T23:02:00.188Z,22.65
2023-02-09T23:04:27.150Z,29.08
2023-02-09T23:06:54.056Z,24.92
2023-02-09T23:09:20.942Z,25.15
2023-02-09T23:11:47.803Z,24.73
2023-02-09T23:14:14.676Z,27.23
2023-02-09T23:16:43.635Z,26.73
2023-02-09T23:19:15.426Z,24.20
2023-02-09T23:21:49.414Z,27.67
2023-02-09T23:24:21.643Z,22.92
2023-02-09T23:26:48.785Z,28.27
2023-02-09T23:29:17.206Z,28.73
2023-02-09T23:31:46.939Z,26.55
2023-02-09T23:34:20.994Z,23.42
2023-02-09T23:36:48.050Z,26.13
2023-02-09T23:39:18.696Z,25.98
2023-02-09T23:41:46.157Z,28.33
2023-02-09T23:44:13.241Z,26.08
2023-02-09T23:46:40.780Z,27.10
2023-02-09T23:49:07.697Z,26.88
2023-02-09T23:51:36.356Z,25.50
2023-02-09T23:54:06.527Z,23.95
2023-02-09T23:56:37.136Z,31.25
2023-02-09T23:59:08.486Z,29.45
